createdAt,value
2022-12-15T00:02:00.545Z,-1.25
2022-12-15T00:05:04.987Z,-1.40
2022-12-15T00:08:08.890Z,-1.10
2022-12-15T00:11:14.144Z,-1.17
2022-12-15T00:14:18.542Z,-1.25
2022-12-15T00:17:22.629Z,-2.04
2022-12-15T00:20:27.333Z,-1.43
2022-12-15T00:23:31.770Z,-1.10
2022-12-15T00:26:35.938Z,-1.10
2022-12-15T00:29:40.219Z,-1.42
2022-12-15T00:32:44.534Z,-2.34
2022-12-15T00:35:48.310Z,-2.08
2022-12-15T00:38:43.582Z,-1.09
2022-12-15T00:41:28.875Z,-1.17
2022-12-15T00:44:18.913Z,-1.06
2022-12-15T00:47:06.874Z,-1.00
2022-12-15T00:50:11.036Z,-1.04
2022-12-15T00:53:15.069Z,-1.07
2022-12-15T00:56:19.050Z,-0.99
2022-12-15T00:59:23.090Z,-1.02
2022-12-15T01:02:27.198Z,-1.19
2022-12-15T01:05:31.551Z,-1.94
2022-12-15T01:08:35.435Z,-1.54
2022-12-15T01:11:39.658Z,-1.27
2022-12-15T01:14:44.034Z,-1.27
2022-12-15T01:17:48.992Z,-1.60
2022-12-15T01:20:34.792Z,-0.90
2022-12-15T01:23:20.306Z,-0.90
2022-12-15T01:26:06.755Z,-1.95
2022-12-15T01:28:52.066Z,-1.37
2022-12-15T01:31:37.843Z,-0.86
2022-12-15T01:34:23.815Z,-1.32
2022-12-15T01:37:09.230Z,-1.05
2022-12-15T01:40:13.393Z,-0.97
2022-12-15T01:42:59.005Z,-1.11
2022-12-15T01:45:49.768Z,-1.57
2022-12-15T01:48:58.252Z,-0.77
2022-12-15T01:51:48.518Z,-2.12
2022-12-15T01:54:52.866Z,-2.01
2022-12-15T01:57:39.211Z,-1.46
2022-12-15T02:00:24.833Z,-2.01
2022-12-15T02:03:12.128Z,-1.27
2022-12-15T02:05:58.311Z,-1.13
2022-12-15T02:08:47.534Z,-0.70
2022-12-15T02:12:01.880Z,-1.05
2022-12-15T02:14:54.065Z,-0.74
2022-12-15T02:18:09.057Z,-0.62
2022-12-15T02:21:14.181Z,-1.44
2022-12-15T02:24:18.653Z,-0.58
2022-12-15T02:27:13.713Z,-0.57
2022-12-15T02:30:21.243Z,-0.55
2022-12-15T02:33:11.506Z,-0.56
2022-12-15T02:35:59.671Z,-0.63
2022-12-15T02:38:45.723Z,-0.85
2022-12-15T02:41:36.468Z,-0.72
2022-12-15T02:44:28.970Z,-1.90
2022-12-15T02:47:28.366Z,-0.48
2022-12-15T02:50:29.857Z,-1.71
2022-12-15T02:53:28.050Z,-0.35
2022-12-15T02:56:25.761Z,-1.57
2022-12-15T02:59:16.259Z,-0.59
2022-12-15T03:02:06.476Z,-0.83
2022-12-15T03:04:53.358Z,-0.74
2022-12-15T03:07:39.009Z,-0.32
2022-12-15T03:10:25.864Z,-0.32
2022-12-15T03:13:11.314Z,-0.82
2022-12-15T03:15:58.371Z,-0.79
2022-12-15T03:18:44.347Z,-0.67
2022-12-15T03:21:30.206Z,-1.46
2022-12-15T03:24:15.514Z,-0.62
2022-12-15T03:27:01.050Z,-0.83
2022-12-15T03:29:46.343Z,-0.25
2022-12-15T03:32:31.900Z,-0.61
2022-12-15T03:35:17.422Z,-0.41
2022-12-15T03:38:02.683Z,-1.51
2022-12-15T03:40:48.325Z,-0.33
2022-12-15T03:43:34.502Z,-0.57
2022-12-15T03:46:20.345Z,-0.19
2022-12-15T03:49:06.019Z,-0.63
2022-12-15T03:51:52.420Z,-0.36
2022-12-15T03:54:37.724Z,-0.37
2022-12-15T03:57:23.329Z,-1.48
2022-12-15T04:00:11.393Z,0.06
2022-12-15T04:03:00.302Z,-0.03
2022-12-15T04:05:45.643Z,-1.17
2022-12-15T04:08:31.084Z,-0.15
2022-12-15T04:11:17.019Z,0.04
2022-12-15T04:14:02.811Z,-1.28
2022-12-15T04:16:48.176Z,-0.36
2022-12-15T04:19:52.038Z,-0.22
2022-12-15T04:22:41.846Z,-0.35
2022-12-15T04:25:47.154Z,0.12
2022-12-15T04:28:51.562Z,0.13
2022-12-15T04:31:55.859Z,0.00
2022-12-15T04:34:59.914Z,-0.07
2022-12-15T04:38:04.024Z,0.18
2022-12-15T04:41:08.036Z,-1.12
2022-12-15T04:44:13.753Z,-0.18
2022-12-15T04:47:18.231Z,0.13
2022-12-15T04:50:23.376Z,0.18
2022-12-15T04:53:36.667Z,-0.48
2022-12-15T04:56:41.456Z,-1.10
2022-12-15T04:59:45.789Z,-0.14
2022-12-15T05:02:49.956Z,-0.44
2022-12-15T05:05:54.312Z,0.11
2022-12-15T05:08:58.482Z,-0.06
2022-12-15T05:12:02.665Z,0.29
2022-12-15T05:15:07.047Z,-0.71
2022-12-15T05:18:11.065Z,0.13
2022-12-15T05:21:17.109Z,0.18
2022-12-15T05:24:21.395Z,0.09
2022-12-15T05:27:26.877Z,0.50
2022-12-15T05:30:31.211Z,0.46
2022-12-15T05:33:17.357Z,0.44
2022-12-15T05:36:04.333Z,0.46
2022-12-15T05:38:51.232Z,0.52
2022-12-15T05:41:36.972Z,0.48
2022-12-15T05:44:23.730Z,0.51
2022-12-15T05:47:09.469Z,-0.50
2022-12-15T05:49:55.246Z,0.52
2022-12-15T05:52:44.967Z,0.50
2022-12-15T05:55:33.519Z,0.31
2022-12-15T05:58:19.050Z,-0.60
2022-12-15T06:01:15.784Z,0.17
2022-12-15T06:04:02.000Z,0.21
2022-12-15T06:06:47.935Z,0.12
2022-12-15T06:09:33.842Z,0.57
2022-12-15T06:12:19.331Z,-0.07
2022-12-15T06:15:05.530Z,0.36
2022-12-15T06:17:53.630Z,0.67
2022-12-15T06:20:40.556Z,0.30
2022-12-15T06:23:29.330Z,-0.07
2022-12-15T06:29:22.498Z,0.78
2022-12-15T06:32:08.166Z,0.82
2022-12-15T06:34:54.281Z,0.85
2022-12-15T06:37:39.987Z,0.88
2022-12-15T06:40:25.547Z,-0.29
2022-12-15T06:43:11.888Z,0.97
2022-12-15T06:45:58.027Z,0.74
2022-12-15T06:48:45.719Z,0.89
2022-12-15T06:51:32.331Z,0.98
2022-12-15T06:54:18.332Z,0.99
2022-12-15T06:57:04.499Z,0.87
2022-12-15T06:59:49.830Z,0.72
2022-12-15T07:02:36.336Z,1.01
2022-12-15T07:05:22.734Z,0.93
2022-12-15T07:08:09.991Z,0.99
2022-12-15T07:10:55.464Z,0.99
2022-12-15T07:13:41.375Z,0.49
2022-12-15T07:16:27.013Z,1.00
2022-12-15T07:19:13.488Z,0.49
2022-12-15T07:22:01.505Z,1.11
2022-12-15T07:24:46.831Z,0.83
2022-12-15T07:27:32.923Z,1.22
2022-12-15T07:30:18.934Z,0.03
2022-12-15T07:33:05.884Z,0.77
2022-12-15T07:35:55.805Z,1.23
2022-12-15T07:38:42.353Z,0.94
2022-12-15T07:41:28.816Z,1.27
2022-12-15T07:44:15.204Z,1.31
2022-12-15T07:47:01.575Z,0.70
2022-12-15T07:49:47.924Z,1.31
2022-12-15T07:52:34.902Z,1.29
2022-12-15T07:55:37.230Z,1.32
2022-12-15T07:58:30.552Z,1.32
2022-12-15T08:01:16.650Z,1.20
2022-12-15T08:04:03.938Z,1.20
2022-12-15T08:06:51.203Z,0.97
2022-12-15T08:09:39.147Z,1.03
2022-12-15T08:12:24.907Z,1.30
2022-12-15T08:15:11.815Z,1.26
2022-12-15T08:17:57.528Z,1.28
2022-12-15T08:20:43.192Z,1.16
2022-12-15T08:23:29.240Z,1.32
2022-12-15T08:26:17.756Z,1.30
2022-12-15T08:32:12.122Z,1.00
2022-12-15T08:34:58.088Z,1.34
2022-12-15T08:37:45.428Z,1.33
2022-12-15T08:40:31.411Z,1.39
2022-12-15T08:43:17.397Z,1.08
2022-12-15T08:46:04.048Z,1.42
2022-12-15T08:48:50.867Z,1.47
2022-12-15T08:51:37.003Z,1.16
2022-12-15T08:54:23.015Z,1.41
2022-12-15T08:57:08.740Z,1.02
2022-12-15T08:59:54.697Z,1.23
2022-12-15T09:02:40.483Z,1.19
2022-12-15T09:05:27.095Z,1.33
2022-12-15T09:08:12.543Z,1.28
2022-12-15T09:10:59.625Z,1.32
2022-12-15T09:13:45.892Z,1.26
2022-12-15T09:16:31.906Z,1.65
2022-12-15T09:19:18.295Z,0.38
2022-12-15T09:22:05.962Z,1.71
2022-12-15T09:24:52.378Z,1.74
2022-12-15T09:27:39.856Z,1.66
2022-12-15T09:30:26.032Z,1.75
2022-12-15T09:33:12.179Z,1.73
2022-12-15T09:35:58.848Z,1.52
2022-12-15T09:38:45.003Z,1.54
2022-12-15T09:41:33.444Z,1.50
2022-12-15T09:44:21.377Z,1.54
2022-12-15T09:47:21.537Z,1.91
2022-12-15T09:50:12.040Z,1.40
2022-12-15T09:52:59.251Z,1.95
2022-12-15T09:55:48.992Z,0.76
2022-12-15T09:58:57.534Z,1.85
2022-12-15T10:01:43.889Z,1.98
2022-12-15T10:04:57.999Z,1.66
2022-12-15T10:07:46.741Z,1.97
2022-12-15T10:10:55.381Z,1.97
2022-12-15T10:14:13.152Z,1.70
2022-12-15T10:17:06.507Z,2.00
2022-12-15T10:20:01.978Z,2.01
2022-12-15T10:22:50.274Z,1.61
2022-12-15T10:25:37.091Z,2.00
2022-12-15T10:28:51.173Z,1.86
2022-12-15T10:32:10.841Z,2.14
2022-12-15T10:34:57.109Z,2.15
2022-12-15T10:37:42.913Z,1.76
2022-12-15T10:40:55.434Z,2.15
2022-12-15T10:43:44.249Z,1.44
2022-12-15T10:46:32.663Z,2.12
2022-12-15T10:49:18.866Z,2.20
2022-12-15T10:52:05.069Z,2.16
2022-12-15T10:54:53.111Z,2.10
2022-12-15T10:58:00.034Z,2.26
2022-12-15T11:00:46.639Z,2.26
2022-12-15T11:03:39.103Z,2.20
2022-12-15T11:06:28.838Z,1.83
2022-12-15T11:09:34.815Z,1.23
2022-12-15T11:12:44.033Z,2.03
2022-12-15T11:15:38.903Z,2.18
2022-12-15T11:18:44.419Z,2.14
2022-12-15T11:21:48.887Z,1.77
2022-12-15T11:24:55.076Z,1.97
2022-12-15T11:27:45.287Z,1.79
2022-12-15T11:30:39.991Z,0.83
2022-12-15T11:33:26.178Z,0.69
2022-12-15T11:36:39.558Z,2.03
2022-12-15T11:40:13.325Z,1.99
2022-12-15T11:43:14.482Z,1.98
2022-12-15T11:46:20.439Z,1.94
2022-12-15T11:49:42.555Z,1.83
2022-12-15T11:52:43.358Z,1.94
2022-12-15T11:55:47.633Z,1.38
2022-12-15T11:59:01.475Z,1.90
2022-12-15T12:01:55.474Z,1.94
2022-12-15T12:04:50.853Z,1.99
2022-12-15T12:07:47.175Z,2.03
2022-12-15T12:10:52.653Z,2.04
2022-12-15T12:14:41.433Z,2.08
2022-12-15T12:17:43.171Z,2.02
2022-12-15T12:21:13.225Z,1.95
2022-12-15T12:24:04.101Z,1.58
2022-12-15T12:27:10.593Z,1.57
2022-12-15T12:30:03.530Z,1.55
2022-12-15T12:33:00.020Z,1.73
2022-12-15T12:35:57.497Z,1.38
2022-12-15T12:38:56.278Z,1.80
2022-12-15T12:42:00.924Z,0.48
2022-12-15T12:44:47.001Z,1.84
2022-12-15T12:47:38.204Z,1.94
2022-12-15T12:50:30.251Z,1.99
2022-12-15T12:53:33.164Z,2.08
2022-12-15T12:56:42.980Z,2.08
2022-12-15T12:59:29.101Z,2.10
2022-12-15T13:02:14.878Z,2.08
2022-12-15T13:05:05.207Z,2.03
2022-12-15T13:08:06.352Z,2.03
2022-12-15T13:10:53.766Z,2.05
2022-12-15T13:13:51.013Z,1.76
2022-12-15T13:16:40.504Z,2.13
2022-12-15T13:19:59.774Z,0.82
2022-12-15T13:22:46.267Z,1.97
2022-12-15T13:25:42.994Z,0.92
2022-12-15T13:33:16.548Z,2.02
2022-12-15T13:36:02.818Z,1.87
2022-12-15T13:38:56.034Z,0.78
2022-12-15T13:45:50.614Z,2.09
2022-12-15T13:49:15.486Z,2.09
2022-12-15T13:52:04.144Z,2.03
2022-12-15T13:54:59.357Z,2.14
2022-12-15T13:58:07.486Z,2.16
2022-12-15T14:00:55.778Z,1.21
2022-12-15T14:04:06.227Z,2.23
2022-12-15T14:07:01.694Z,2.22
2022-12-15T14:09:50.538Z,2.23
2022-12-15T14:12:39.784Z,2.16
2022-12-15T14:15:33.046Z,1.96
2022-12-15T14:18:31.835Z,2.16
2022-12-15T14:21:23.245Z,2.22
2022-12-15T14:24:38.527Z,2.25
2022-12-15T14:27:31.163Z,2.17
2022-12-15T14:30:20.459Z,2.30
2022-12-15T14:33:15.271Z,1.03
2022-12-15T14:36:02.469Z,1.11
2022-12-15T14:38:54.081Z,2.21
2022-12-15T14:41:48.941Z,1.88
2022-12-15T14:44:39.375Z,2.05
2022-12-15T14:47:35.574Z,2.17
2022-12-15T14:50:25.229Z,1.84
2022-12-15T14:53:17.719Z,1.90
2022-12-15T14:56:32.827Z,2.20
2022-12-15T14:59:20.924Z,0.99
2022-12-15T15:02:28.698Z,2.21
2022-12-15T15:05:27.439Z,2.22
2022-12-15T15:08:33.349Z,2.31
2022-12-15T15:11:48.330Z,2.31
2022-12-15T15:14:40.767Z,1.15
2022-12-15T15:17:30.432Z,2.03
2022-12-15T15:20:34.423Z,2.35
2022-12-15T15:23:21.094Z,2.09
2022-12-15T15:26:10.652Z,2.35
2022-12-15T15:28:57.134Z,2.34
2022-12-15T15:31:43.303Z,1.94
2022-12-15T15:34:29.135Z,2.25
2022-12-15T15:37:24.987Z,2.36
2022-12-15T15:40:14.783Z,1.85
2022-12-15T15:43:01.078Z,2.21
2022-12-15T15:45:49.408Z,2.26
2022-12-15T15:48:39.652Z,2.33
2022-12-15T15:51:27.370Z,1.86
2022-12-15T15:54:16.216Z,2.34
2022-12-15T15:57:02.291Z,2.29
2022-12-15T15:59:48.164Z,2.10
2022-12-15T16:02:33.819Z,2.05
2022-12-15T16:05:21.348Z,2.31
2022-12-15T16:08:09.507Z,1.83
2022-12-15T16:10:55.959Z,2.14
2022-12-15T16:13:41.607Z,1.77
2022-12-15T16:16:31.191Z,2.09
2022-12-15T16:19:17.219Z,2.09
2022-12-15T16:22:03.523Z,2.33
2022-12-15T16:24:50.842Z,2.37
2022-12-15T16:27:37.415Z,2.00
2022-12-15T16:30:26.151Z,1.93
2022-12-15T16:33:12.984Z,2.36
2022-12-15T16:35:59.452Z,2.36
2022-12-15T16:38:45.102Z,2.12
2022-12-15T16:41:31.371Z,2.41
2022-12-15T16:44:16.869Z,1.23
2022-12-15T16:47:02.400Z,1.40
2022-12-15T16:49:48.209Z,2.13
2022-12-15T16:52:34.363Z,2.17
2022-12-15T16:55:24.638Z,2.37
2022-12-15T16:58:15.202Z,1.19
2022-12-15T17:01:00.971Z,1.92
2022-12-15T17:03:47.348Z,2.04
2022-12-15T17:06:33.139Z,1.96
2022-12-15T17:09:22.932Z,1.12
2022-12-15T17:12:15.726Z,2.05
2022-12-15T17:15:02.563Z,2.24
2022-12-15T17:17:48.623Z,1.87
2022-12-15T17:20:34.435Z,2.19
2022-12-15T17:23:22.946Z,1.08
2022-12-15T17:26:28.725Z,1.93
2022-12-15T17:29:21.821Z,2.29
2022-12-15T17:32:13.654Z,2.35
2022-12-15T17:35:00.030Z,2.36
2022-12-15T17:37:46.182Z,2.26
2022-12-15T17:40:32.370Z,2.35
2022-12-15T17:43:21.397Z,2.11
2022-12-15T17:46:07.663Z,2.15
2022-12-15T17:48:53.946Z,2.12
2022-12-15T17:51:42.087Z,2.21
2022-12-15T17:54:28.444Z,2.29
2022-12-15T17:57:15.217Z,2.32
2022-12-15T18:00:02.372Z,1.23
2022-12-15T18:02:54.863Z,2.34
2022-12-15T18:05:41.432Z,2.31
2022-12-15T18:08:28.653Z,2.08
2022-12-15T18:11:16.720Z,1.94
2022-12-15T18:14:02.221Z,2.15
2022-12-15T18:16:49.209Z,2.39
2022-12-15T18:19:35.291Z,1.15
2022-12-15T18:22:24.012Z,2.42
2022-12-15T18:25:21.731Z,2.26
2022-12-15T18:28:35.538Z,2.32
2022-12-15T18:31:29.809Z,2.29
2022-12-15T18:34:18.225Z,1.96
2022-12-15T18:37:14.053Z,2.04
2022-12-15T18:40:04.435Z,1.05
2022-12-15T18:42:51.106Z,1.92
2022-12-15T18:45:37.590Z,2.23
2022-12-15T18:48:30.528Z,2.05
2022-12-15T18:51:23.623Z,2.17
2022-12-15T18:54:23.146Z,2.26
2022-12-15T18:57:38.238Z,2.22
2022-12-15T19:00:27.969Z,2.22
2022-12-15T19:03:14.701Z,2.30
2022-12-15T19:06:02.066Z,1.99
2022-12-15T19:08:49.201Z,2.20
2022-12-15T19:11:34.872Z,1.94
2022-12-15T19:14:39.765Z,2.31
2022-12-15T19:17:43.703Z,2.00
2022-12-15T19:20:48.099Z,2.21
2022-12-15T19:23:34.023Z,2.04
2022-12-15T19:26:20.377Z,2.24
2022-12-15T19:29:21.980Z,1.09
2022-12-15T19:32:08.460Z,2.06
2022-12-15T19:34:54.613Z,2.31
2022-12-15T19:37:44.619Z,2.15
2022-12-15T19:40:32.868Z,2.32
2022-12-15T19:43:18.628Z,2.27
2022-12-15T19:46:04.842Z,2.29
2022-12-15T19:48:50.976Z,1.64
2022-12-15T19:51:37.530Z,2.31
2022-12-15T19:54:23.819Z,2.31
2022-12-15T19:57:17.922Z,2.17
2022-12-15T20:00:15.506Z,2.10
2022-12-15T20:03:02.117Z,2.29
2022-12-15T20:05:51.248Z,2.29
2022-12-15T20:08:40.710Z,1.34
2022-12-15T20:11:28.581Z,1.05
2022-12-15T20:14:17.478Z,2.23
2022-12-15T20:17:04.063Z,2.20
2022-12-15T20:19:49.599Z,1.90
2022-12-15T20:22:35.025Z,2.22
2022-12-15T20:25:27.317Z,2.22
2022-12-15T20:28:20.079Z,2.20
2022-12-15T20:31:06.052Z,1.90
2022-12-15T20:33:52.743Z,1.27
2022-12-15T20:36:38.909Z,2.25
2022-12-15T20:39:29.766Z,2.17
2022-12-15T20:42:18.842Z,1.99
2022-12-15T20:45:07.982Z,2.18
2022-12-15T20:47:59.053Z,2.18
2022-12-15T20:50:49.951Z,0.74
2022-12-15T20:53:35.433Z,2.12
2022-12-15T20:56:23.182Z,2.16
2022-12-15T20:59:08.865Z,1.47
2022-12-15T21:01:54.959Z,0.96
2022-12-15T21:04:43.376Z,2.15
2022-12-15T21:07:29.790Z,2.09
2022-12-15T21:10:17.907Z,0.90
2022-12-15T21:13:14.573Z,0.88
2022-12-15T21:16:01.209Z,1.78
2022-12-15T21:19:18.602Z,1.53
2022-12-15T21:21:56.091Z,1.20
2022-12-15T21:24:56.563Z,2.01
2022-12-15T21:27:42.705Z,1.99
2022-12-15T21:30:31.215Z,1.57
2022-12-15T21:33:17.676Z,1.83
2022-12-15T21:36:03.410Z,2.07
2022-12-15T21:38:51.917Z,2.11
2022-12-15T21:41:41.569Z,1.17
2022-12-15T21:44:27.363Z,2.00
2022-12-15T21:47:25.507Z,1.02
2022-12-15T21:50:11.733Z,2.20
2022-12-15T21:52:57.271Z,2.18
2022-12-15T21:55:45.934Z,2.23
2022-12-15T21:58:31.563Z,2.23
2022-12-15T22:01:20.953Z,1.16
2022-12-15T22:04:21.971Z,2.26
2022-12-15T22:07:14.477Z,1.02
2022-12-15T22:10:00.090Z,2.05
2022-12-15T22:12:55.908Z,2.25
2022-12-15T22:15:45.013Z,2.25
2022-12-15T22:18:30.936Z,2.18
2022-12-15T22:21:17.225Z,1.47
2022-12-15T22:24:03.032Z,1.93
2022-12-15T22:26:48.716Z,0.98
2022-12-15T22:29:34.417Z,2.04
2022-12-15T22:32:19.738Z,0.93
2022-12-15T22:35:16.237Z,1.21
2022-12-15T22:38:02.080Z,2.09
2022-12-15T22:40:51.301Z,1.97
2022-12-15T22:43:40.839Z,1.89
2022-12-15T22:46:26.752Z,1.49
2022-12-15T22:49:35.647Z,2.06
2022-12-15T22:52:21.560Z,2.07
2022-12-15T22:55:07.165Z,2.08
2022-12-15T22:58:08.280Z,1.15
2022-12-15T23:00:56.459Z,2.11
2022-12-15T23:03:42.273Z,1.83
2022-12-15T23:06:28.260Z,1.75
2022-12-15T23:09:14.077Z,1.31
2022-12-15T23:12:02.171Z,1.52
2022-12-15T23:15:06.166Z,1.94
2022-12-15T23:17:51.515Z,1.52
2022-12-15T23:20:37.647Z,1.88
2022-12-15T23:23:23.192Z,0.87
2022-12-15T23:26:08.584Z,1.89
2022-12-15T23:28:55.202Z,1.63
2022-12-15T23:31:40.766Z,0.63
2022-12-15T23:34:26.223Z,0.88
2022-12-15T23:37:12.024Z,1.80
2022-12-15T23:39:57.355Z,1.66
2022-12-15T23:42:43.148Z,1.57
2022-12-15T23:45:28.644Z,0.59
2022-12-15T23:48:15.054Z,1.34
2022-12-15T23:51:11.279Z,1.78
2022-12-15T23:53:57.038Z,0.59
2022-12-15T23:56:42.350Z,0.68
2022-12-15T23:59:28.437Z,1.18
